sensor_id;sensor_type;location;lat;lon;timestamp;pressure;altitude;pressure_sealevel;temperature;humidity
80699;BME280;70062;51.658;5.658;2024-03-06T00:01:20;101633.35;;;19.45;41.34
80699;BME280;70062;51.658;5.658;2024-03-06T00:03:55;101634.89;;;19.57;41.52
80699;BME280;70062;51.658;5.658;2024-03-06T00:06:29;101630.41;;;19.88;41.24
80699;BME280;70062;51.658;5.658;2024-03-06T00:09:05;101637.10;;;20.14;40.84
80699;BME280;70062;51.658;5.658;2024-03-06T00:11:36;101641.85;;;20.31;40.52
80699;BME280;70062;51.658;5.658;2024-03-06T00:14:14;101646.06;;;20.40;40.05
80699;BME280;70062;51.658;5.658;2024-03-06T00:16:49;101651.34;;;20.41;39.99
80699;BME280;70062;51.658;5.658;2024-03-06T00:19:24;101650.84;;;20.36;39.87
80699;BME280;70062;51.658;5.658;2024-03-06T00:21:59;101648.03;;;20.27;39.99
80699;BME280;70062;51.658;5.658;2024-03-06T00:24:43;101648.81;;;20.15;40.10
80699;BME280;70062;51.658;5.658;2024-03-06T00:27:14;101652.00;;;20.02;40.18
80699;BME280;70062;51.658;5.658;2024-03-06T00:29:49;101655.35;;;19.89;40.33
80699;BME280;70062;51.658;5.658;2024-03-06T00:32:20;101660.70;;;19.72;40.60
80699;BME280;70062;51.658;5.658;2024-03-06T00:34:56;101660.66;;;19.50;40.86
80699;BME280;70062;51.658;5.658;2024-03-06T00:37:31;101657.70;;;19.44;41.38
80699;BME280;70062;51.658;5.658;2024-03-06T00:40:07;101660.48;;;19.71;41.30
80699;BME280;70062;51.658;5.658;2024-03-06T00:42:41;101659.41;;;19.99;40.87
80699;BME280;70062;51.658;5.658;2024-03-06T00:45:16;101663.77;;;20.21;40.59
80699;BME280;70062;51.658;5.658;2024-03-06T00:47:52;101664.58;;;20.34;40.17
80699;BME280;70062;51.658;5.658;2024-03-06T00:50:27;101666.94;;;20.38;40.06
80699;BME280;70062;51.658;5.658;2024-03-06T00:52:58;101663.22;;;20.36;39.89
80699;BME280;70062;51.658;5.658;2024-03-06T00:55:33;101667.63;;;20.30;39.75
80699;BME280;70062;51.658;5.658;2024-03-06T00:58:08;101669.85;;;20.21;39.76
80699;BME280;70062;51.658;5.658;2024-03-06T01:00:42;101670.96;;;20.08;40.00
80699;BME280;70062;51.658;5.658;2024-03-06T01:03:17;101673.77;;;19.94;40.13
80699;BME280;70062;51.658;5.658;2024-03-06T01:05:54;101685.79;;;19.80;40.34
80699;BME280;70062;51.658;5.658;2024-03-06T01:08:28;101685.83;;;19.60;40.57
80699;BME280;70062;51.658;5.658;2024-03-06T01:11:03;101687.58;;;19.42;40.94
80699;BME280;70062;51.658;5.658;2024-03-06T01:13:37;101691.37;;;19.53;41.32
80699;BME280;70062;51.658;5.658;2024-03-06T01:16:14;101690.60;;;19.84;40.96
80699;BME280;70062;51.658;5.658;2024-03-06T01:18:56;101688.48;;;20.12;40.57
80699;BME280;70062;51.658;5.658;2024-03-06T01:21:31;101691.66;;;20.29;40.14
80699;BME280;70062;51.658;5.658;2024-03-06T01:24:06;101689.90;;;20.36;39.92
80699;BME280;70062;51.658;5.658;2024-03-06T01:26:41;101696.05;;;20.38;39.83
80699;BME280;70062;51.658;5.658;2024-03-06T01:29:16;101698.90;;;20.33;39.75
80699;BME280;70062;51.658;5.658;2024-03-06T01:31:51;101698.18;;;20.24;39.74
80699;BME280;70062;51.658;5.658;2024-03-06T01:34:25;101697.41;;;20.13;39.84
80699;BME280;70062;51.658;5.658;2024-03-06T01:37:00;101698.67;;;20.01;40.00
80699;BME280;70062;51.658;5.658;2024-03-06T01:39:44;101699.70;;;19.86;40.11
80699;BME280;70062;51.658;5.658;2024-03-06T01:42:19;101702.65;;;19.71;40.22
80699;BME280;70062;51.658;5.658;2024-03-06T01:44:50;101705.41;;;19.50;40.59
80699;BME280;70062;51.658;5.658;2024-03-06T01:47:31;101708.13;;;19.48;41.06
80699;BME280;70062;51.658;5.658;2024-03-06T01:50:08;101708.94;;;19.72;40.91
80699;BME280;70062;51.658;5.658;2024-03-06T01:52:42;101711.55;;;19.93;40.66
80699;BME280;70062;51.658;5.658;2024-03-06T01:55:16;101711.36;;;20.07;40.25
80699;BME280;70062;51.658;5.658;2024-03-06T01:57:52;101714.61;;;20.11;40.10
80699;BME280;70062;51.658;5.658;2024-03-06T02:00:32;101717.94;;;20.12;40.06
80699;BME280;70062;51.658;5.658;2024-03-06T02:03:07;101717.66;;;20.07;39.94
80699;BME280;70062;51.658;5.658;2024-03-06T02:05:41;101719.18;;;19.98;39.94
80699;BME280;70062;51.658;5.658;2024-03-06T02:08:16;101723.65;;;19.89;40.08
80699;BME280;70062;51.658;5.658;2024-03-06T02:10:54;101725.27;;;19.77;40.14
80699;BME280;70062;51.658;5.658;2024-03-06T02:13:27;101724.58;;;19.64;40.33
80699;BME280;70062;51.658;5.658;2024-03-06T02:16:01;101723.82;;;19.49;40.59
80699;BME280;70062;51.658;5.658;2024-03-06T02:18:35;101730.45;;;19.31;40.78
80699;BME280;70062;51.658;5.658;2024-03-06T02:21:10;101734.23;;;19.16;41.35
80699;BME280;70062;51.658;5.658;2024-03-06T02:23:44;101732.60;;;19.32;41.45
80699;BME280;70062;51.658;5.658;2024-03-06T02:26:20;101727.55;;;19.64;41.14
80699;BME280;70062;51.658;5.658;2024-03-06T02:28:54;101728.92;;;19.90;40.82
80699;BME280;70062;51.658;5.658;2024-03-06T02:31:27;101729.33;;;20.07;40.35
80699;BME280;70062;51.658;5.658;2024-03-06T02:34:01;101729.01;;;20.15;40.06
80699;BME280;70062;51.658;5.658;2024-03-06T02:36:37;101733.40;;;20.17;39.92
80699;BME280;70062;51.658;5.658;2024-03-06T02:39:11;101733.99;;;20.12;39.81
80699;BME280;70062;51.658;5.658;2024-03-06T02:41:45;101738.54;;;20.06;39.85
80699;BME280;70062;51.658;5.658;2024-03-06T02:44:19;101741.90;;;19.94;39.85
80699;BME280;70062;51.658;5.658;2024-03-06T02:46:52;101739.35;;;19.82;39.96
80699;BME280;70062;51.658;5.658;2024-03-06T02:49:30;101739.39;;;19.70;40.14
80699;BME280;70062;51.658;5.658;2024-03-06T02:52:05;101739.11;;;19.53;40.37
80699;BME280;70062;51.658;5.658;2024-03-06T02:54:41;101743.72;;;19.32;40.79
80699;BME280;70062;51.658;5.658;2024-03-06T02:57:14;101744.18;;;19.30;41.05
80699;BME280;70062;51.658;5.658;2024-03-06T02:59:47;101734.87;;;19.65;41.14
80699;BME280;70062;51.658;5.658;2024-03-06T03:02:21;101737.92;;;20.30;40.59
80699;BME280;70062;51.658;5.658;2024-03-06T03:04:56;101736.66;;;21.06;39.52
80699;BME280;70062;51.658;5.658;2024-03-06T03:07:29;101731.35;;;21.65;38.42
80699;BME280;70062;51.658;5.658;2024-03-06T03:10:03;101731.02;;;22.06;37.61
80699;BME280;70062;51.658;5.658;2024-03-06T03:12:37;101738.09;;;22.33;36.87
80699;BME280;70062;51.658;5.658;2024-03-06T03:15:10;101735.98;;;22.45;36.33
80699;BME280;70062;51.658;5.658;2024-03-06T03:17:43;101737.08;;;22.47;36.05
80699;BME280;70062;51.658;5.658;2024-03-06T03:20:17;101738.05;;;22.43;35.93
80699;BME280;70062;51.658;5.658;2024-03-06T03:22:50;101743.31;;;22.31;35.87
80699;BME280;70062;51.658;5.658;2024-03-06T03:25:24;101743.95;;;22.17;35.84
80699;BME280;70062;51.658;5.658;2024-03-06T03:28:00;101745.77;;;22.00;36.02
80699;BME280;70062;51.658;5.658;2024-03-06T03:30:32;101739.63;;;21.79;36.21
80699;BME280;70062;51.658;5.658;2024-03-06T03:33:06;101739.95;;;21.58;36.46
80699;BME280;70062;51.658;5.658;2024-03-06T03:35:39;101744.29;;;21.37;36.67
80699;BME280;70062;51.658;5.658;2024-03-06T03:38:12;101743.81;;;21.15;36.90
80699;BME280;70062;51.658;5.658;2024-03-06T03:40:46;101748.78;;;20.93;37.25
80699;BME280;70062;51.658;5.658;2024-03-06T03:43:19;101753.90;;;20.72;37.47
80699;BME280;70062;51.658;5.658;2024-03-06T03:45:52;101752.02;;;20.51;37.79
80699;BME280;70062;51.658;5.658;2024-03-06T03:48:25;101754.29;;;20.30;38.12
80699;BME280;70062;51.658;5.658;2024-03-06T03:50:59;101750.45;;;20.08;38.58
80699;BME280;70062;51.658;5.658;2024-03-06T03:53:33;101753.32;;;19.91;38.76
80699;BME280;70062;51.658;5.658;2024-03-06T03:56:06;101755.07;;;19.71;39.17
80699;BME280;70062;51.658;5.658;2024-03-06T03:58:40;101760.48;;;19.52;39.40
80699;BME280;70062;51.658;5.658;2024-03-06T04:01:16;101763.05;;;19.32;39.74
80699;BME280;70062;51.658;5.658;2024-03-06T04:03:49;101767.46;;;19.10;40.27
80699;BME280;70062;51.658;5.658;2024-03-06T04:06:22;101769.35;;;19.15;40.70
80699;BME280;70062;51.658;5.658;2024-03-06T04:08:55;101767.02;;;19.56;40.61
80699;BME280;70062;51.658;5.658;2024-03-06T04:11:29;101763.23;;;20.24;40.06
80699;BME280;70062;51.658;5.658;2024-03-06T04:14:02;101762.88;;;21.00;39.01
80699;BME280;70062;51.658;5.658;2024-03-06T04:16:36;101759.95;;;21.62;37.73
80699;BME280;70062;51.658;5.658;2024-03-06T04:19:08;101758.78;;;22.04;36.92
80699;BME280;70062;51.658;5.658;2024-03-06T04:21:43;101759.04;;;22.30;36.49
80699;BME280;70062;51.658;5.658;2024-03-06T04:24:16;101761.68;;;22.43;35.82
80699;BME280;70062;51.658;5.658;2024-03-06T04:26:49;101764.52;;;22.46;35.52
80699;BME280;70062;51.658;5.658;2024-03-06T04:29:23;101770.23;;;22.42;35.34
80699;BME280;70062;51.658;5.658;2024-03-06T04:31:56;101767.80;;;22.31;35.52
80699;BME280;70062;51.658;5.658;2024-03-06T04:34:30;101769.66;;;22.16;35.38
80699;BME280;70062;51.658;5.658;2024-03-06T04:37:03;101768.11;;;21.99;35.47
80699;BME280;70062;51.658;5.658;2024-03-06T04:39:35;101772.33;;;21.79;35.75
80699;BME280;70062;51.658;5.658;2024-03-06T04:42:08;101771.06;;;21.58;36.01
80699;BME280;70062;51.658;5.658;2024-03-06T04:44:41;101776.25;;;21.37;36.12
80699;BME280;70062;51.658;5.658;2024-03-06T04:47:14;101779.79;;;21.15;36.55
80699;BME280;70062;51.658;5.658;2024-03-06T04:49:47;101780.57;;;20.94;36.63
80699;BME280;70062;51.658;5.658;2024-03-06T04:52:20;101782.84;;;20.72;36.96
80699;BME280;70062;51.658;5.658;2024-03-06T04:54:54;101785.86;;;20.51;37.47
80699;BME280;70062;51.658;5.658;2024-03-06T04:57:30;101793.34;;;20.30;37.61
80699;BME280;70062;51.658;5.658;2024-03-06T05:00:13;101798.41;;;20.09;37.97
80699;BME280;70062;51.658;5.658;2024-03-06T05:02:47;101801.67;;;19.87;38.34
80699;BME280;70062;51.658;5.658;2024-03-06T05:05:20;101811.13;;;19.69;38.65
80699;BME280;70062;51.658;5.658;2024-03-06T05:07:57;101812.83;;;19.50;39.03
80699;BME280;70062;51.658;5.658;2024-03-06T05:10:30;101820.17;;;19.33;39.34
80699;BME280;70062;51.658;5.658;2024-03-06T05:13:03;101824.58;;;19.11;39.74
80699;BME280;70062;51.658;5.658;2024-03-06T05:15:35;101832.38;;;18.94;40.23
80699;BME280;70062;51.658;5.658;2024-03-06T05:18:11;101836.54;;;19.10;40.67
80699;BME280;70062;51.658;5.658;2024-03-06T05:20:44;101838.20;;;19.60;40.46
80699;BME280;70062;51.658;5.658;2024-03-06T05:23:17;101837.90;;;20.33;39.58
80699;BME280;70062;51.658;5.658;2024-03-06T05:25:49;101845.05;;;21.05;38.48
80699;BME280;70062;51.658;5.658;2024-03-06T05:28:22;101845.86;;;21.59;37.56
80699;BME280;70062;51.658;5.658;2024-03-06T05:31:18;101844.29;;;21.95;36.74
80699;BME280;70062;51.658;5.658;2024-03-06T05:33:50;101846.81;;;22.18;36.08
80699;BME280;70062;51.658;5.658;2024-03-06T05:36:24;101849.57;;;22.26;35.56
80699;BME280;70062;51.658;5.658;2024-03-06T05:38:56;101850.42;;;22.24;35.51
80699;BME280;70062;51.658;5.658;2024-03-06T05:41:28;101848.70;;;22.16;35.43
80699;BME280;70062;51.658;5.658;2024-03-06T05:44:01;101853.05;;;22.05;35.31
80699;BME280;70062;51.658;5.658;2024-03-06T05:46:34;101854.83;;;21.89;35.36
80699;BME280;70062;51.658;5.658;2024-03-06T05:49:07;101860.92;;;21.69;35.59
80699;BME280;70062;51.658;5.658;2024-03-06T05:51:42;101862.14;;;21.35;35.89
80699;BME280;70062;51.658;5.658;2024-03-06T05:54:14;101865.78;;;21.11;36.41
80699;BME280;70062;51.658;5.658;2024-03-06T05:56:48;101872.98;;;21.21;36.68
80699;BME280;70062;51.658;5.658;2024-03-06T05:59:20;101877.73;;;21.37;36.53
80699;BME280;70062;51.658;5.658;2024-03-06T06:01:53;101881.95;;;21.47;36.33
80699;BME280;70062;51.658;5.658;2024-03-06T06:04:26;101884.11;;;21.49;36.16
80699;BME280;70062;51.658;5.658;2024-03-06T06:06:58;101888.35;;;21.43;36.02
80699;BME280;70062;51.658;5.658;2024-03-06T06:09:32;101894.96;;;21.34;36.15
80699;BME280;70062;51.658;5.658;2024-03-06T06:12:05;101897.60;;;21.20;36.25
80699;BME280;70062;51.658;5.658;2024-03-06T06:14:40;101903.22;;;20.99;36.34
80699;BME280;70062;51.658;5.658;2024-03-06T06:17:13;101901.58;;;20.68;36.72
80699;BME280;70062;51.658;5.658;2024-03-06T06:19:46;101907.38;;;20.56;37.26
80699;BME280;70062;51.658;5.658;2024-03-06T06:22:18;101910.25;;;20.73;37.30
80699;BME280;70062;51.658;5.658;2024-03-06T06:24:52;101913.71;;;20.93;37.07
80699;BME280;70062;51.658;5.658;2024-03-06T06:27:25;101913.98;;;21.04;36.80
80699;BME280;70062;51.658;5.658;2024-03-06T06:29:55;101920.88;;;21.07;36.59
80699;BME280;70062;51.658;5.658;2024-03-06T06:32:35;101922.17;;;21.03;36.57
80699;BME280;70062;51.658;5.658;2024-03-06T06:35:05;101924.25;;;20.95;36.64
80699;BME280;70062;51.658;5.658;2024-03-06T06:37:38;101927.80;;;20.83;36.77
80699;BME280;70062;51.658;5.658;2024-03-06T06:40:11;101930.95;;;20.63;36.97
80699;BME280;70062;51.658;5.658;2024-03-06T06:42:48;101935.78;;;20.35;37.41
80699;BME280;70062;51.658;5.658;2024-03-06T06:45:21;101941.66;;;20.33;37.74
80699;BME280;70062;51.658;5.658;2024-03-06T06:47:55;101945.39;;;20.55;37.64
80699;BME280;70062;51.658;5.658;2024-03-06T06:50:31;101945.40;;;20.75;37.44
80699;BME280;70062;51.658;5.658;2024-03-06T06:53:06;101947.77;;;20.86;37.17
80699;BME280;70062;51.658;5.658;2024-03-06T06:55:40;101950.33;;;20.91;36.89
80699;BME280;70062;51.658;5.658;2024-03-06T06:58:15;101950.93;;;20.87;36.91
80699;BME280;70062;51.658;5.658;2024-03-06T07:00:50;101954.73;;;20.79;36.99
80699;BME280;70062;51.658;5.658;2024-03-06T07:03:23;101957.10;;;20.63;36.82
80699;BME280;70062;51.658;5.658;2024-03-06T07:05:58;101963.38;;;20.42;37.13
80699;BME280;70062;51.658;5.658;2024-03-06T07:08:32;101969.55;;;20.21;37.64
80699;BME280;70062;51.658;5.658;2024-03-06T07:11:05;101969.27;;;20.29;37.97
80699;BME280;70062;51.658;5.658;2024-03-06T07:13:38;101974.15;;;20.54;37.85
80699;BME280;70062;51.658;5.658;2024-03-06T07:16:12;101975.33;;;20.73;37.39
80699;BME280;70062;51.658;5.658;2024-03-06T07:18:48;101979.80;;;20.83;37.18
80699;BME280;70062;51.658;5.658;2024-03-06T07:21:22;101983.88;;;20.85;37.10
80699;BME280;70062;51.658;5.658;2024-03-06T07:23:55;101987.08;;;20.81;36.96
80699;BME280;70062;51.658;5.658;2024-03-06T07:26:28;101990.48;;;20.72;37.11
80699;BME280;70062;51.658;5.658;2024-03-06T07:29:01;101997.98;;;20.58;37.24
80699;BME280;70062;51.658;5.658;2024-03-06T07:31:36;102003.06;;;20.34;37.37
80699;BME280;70062;51.658;5.658;2024-03-06T07:34:09;102004.16;;;20.17;37.74
80699;BME280;70062;51.658;5.658;2024-03-06T07:37:05;102006.36;;;20.34;37.91
80699;BME280;70062;51.658;5.658;2024-03-06T07:39:57;102007.05;;;20.65;37.58
80699;BME280;70062;51.658;5.658;2024-03-06T07:42:30;102005.38;;;20.81;37.28
80699;BME280;70062;51.658;5.658;2024-03-06T07:45:03;102013.40;;;20.87;37.15
80699;BME280;70062;51.658;5.658;2024-03-06T07:47:35;102016.51;;;20.85;36.98
80699;BME280;70062;51.658;5.658;2024-03-06T07:50:08;102020.35;;;20.79;37.11
80699;BME280;70062;51.658;5.658;2024-03-06T07:52:41;102022.70;;;20.69;37.23
80699;BME280;70062;51.658;5.658;2024-03-06T07:55:14;102029.02;;;20.52;37.48
80699;BME280;70062;51.658;5.658;2024-03-06T07:57:47;102032.71;;;20.34;37.89
80699;BME280;70062;51.658;5.658;2024-03-06T08:00:20;102037.09;;;20.59;38.17
80699;BME280;70062;51.658;5.658;2024-03-06T08:02:59;102032.91;;;21.12;37.59
80699;BME280;70062;51.658;5.658;2024-03-06T08:05:32;102033.44;;;21.55;37.06
80699;BME280;70062;51.658;5.658;2024-03-06T08:08:06;102031.64;;;21.84;36.31
80699;BME280;70062;51.658;5.658;2024-03-06T08:10:44;102034.80;;;22.00;36.16
80699;BME280;70062;51.658;5.658;2024-03-06T08:13:20;102039.29;;;22.05;35.92
80699;BME280;70062;51.658;5.658;2024-03-06T08:15:53;102040.03;;;22.00;35.80
80699;BME280;70062;51.658;5.658;2024-03-06T08:18:27;102044.17;;;21.90;35.70
80699;BME280;70062;51.658;5.658;2024-03-06T08:21:01;102046.98;;;21.75;35.98
80699;BME280;70062;51.658;5.658;2024-03-06T08:23:33;102052.02;;;21.58;35.94
80699;BME280;70062;51.658;5.658;2024-03-06T08:26:08;102054.16;;;21.37;36.24
80699;BME280;70062;51.658;5.658;2024-03-06T08:28:41;102061.48;;;21.17;36.40
80699;BME280;70062;51.658;5.658;2024-03-06T08:31:14;102061.98;;;20.95;36.78
80699;BME280;70062;51.658;5.658;2024-03-06T08:33:57;102066.77;;;20.73;37.16
80699;BME280;70062;51.658;5.658;2024-03-06T08:36:30;102072.46;;;20.51;37.57
80699;BME280;70062;51.658;5.658;2024-03-06T08:39:04;102071.11;;;20.30;37.71
80699;BME280;70062;51.658;5.658;2024-03-06T08:41:38;102071.52;;;20.08;38.15
80699;BME280;70062;51.658;5.658;2024-03-06T08:44:11;102073.88;;;19.88;38.49
80699;BME280;70062;51.658;5.658;2024-03-06T08:46:42;102075.37;;;19.68;38.91
80699;BME280;70062;51.658;5.658;2024-03-06T08:49:11;102079.64;;;19.50;39.20
80699;BME280;70062;51.658;5.658;2024-03-06T08:51:44;102078.95;;;19.29;39.52
80699;BME280;70062;51.658;5.658;2024-03-06T08:54:17;102091.02;;;19.15;39.97
80699;BME280;70062;51.658;5.658;2024-03-06T08:56:50;102097.02;;;18.99;40.31
80699;BME280;70062;51.658;5.658;2024-03-06T08:59:26;102100.44;;;18.82;40.60
80699;BME280;70062;51.658;5.658;2024-03-06T09:02:18;102100.00;;;18.65;40.98
80699;BME280;70062;51.658;5.658;2024-03-06T09:04:50;102098.37;;;18.49;41.44
80699;BME280;70062;51.658;5.658;2024-03-06T09:07:26;102098.89;;;18.35;41.58
80699;BME280;70062;51.658;5.658;2024-03-06T09:10:00;102101.70;;;18.22;41.89
80699;BME280;70062;51.658;5.658;2024-03-06T09:12:32;102104.61;;;18.12;42.15
80699;BME280;70062;51.658;5.658;2024-03-06T09:15:06;102109.24;;;18.01;42.33
80699;BME280;70062;51.658;5.658;2024-03-06T09:17:48;102111.48;;;17.91;42.59
80699;BME280;70062;51.658;5.658;2024-03-06T09:20:22;102118.20;;;17.82;42.88
80699;BME280;70062;51.658;5.658;2024-03-06T09:23:02;102122.98;;;17.71;43.19
80699;BME280;70062;51.658;5.658;2024-03-06T09:25:48;102125.84;;;17.61;43.39
80699;BME280;70062;51.658;5.658;2024-03-06T09:28:53;102126.48;;;17.51;43.67
80699;BME280;70062;51.658;5.658;2024-03-06T09:32:11;102134.79;;;17.38;43.90
80699;BME280;70062;51.658;5.658;2024-03-06T09:35:44;102131.48;;;17.26;44.29
80699;BME280;70062;51.658;5.658;2024-03-06T09:38:21;102135.13;;;17.18;44.48
80699;BME280;70062;51.658;5.658;2024-03-06T09:41:34;102121.06;;;16.98;44.87
80699;BME280;70062;51.658;5.658;2024-03-06T09:45:00;102146.67;;;17.00;45.11
80699;BME280;70062;51.658;5.658;2024-03-06T09:47:49;102149.44;;;16.92;45.23
80699;BME280;70062;51.658;5.658;2024-03-06T09:50:26;102149.87;;;16.86;45.46
80699;BME280;70062;51.658;5.658;2024-03-06T09:53:34;102155.30;;;16.80;45.51
80699;BME280;70062;51.658;5.658;2024-03-06T09:56:30;102160.48;;;16.71;45.99
80699;BME280;70062;51.658;5.658;2024-03-06T09:59:42;102161.48;;;16.74;46.55
80699;BME280;70062;51.658;5.658;2024-03-06T10:02:41;102169.73;;;17.24;46.60
80699;BME280;70062;51.658;5.658;2024-03-06T10:05:49;102164.81;;;18.18;45.37
80699;BME280;70062;51.658;5.658;2024-03-06T10:09:04;102160.25;;;19.09;43.64
80699;BME280;70062;51.658;5.658;2024-03-06T10:11:55;102162.02;;;19.60;42.47
80699;BME280;70062;51.658;5.658;2024-03-06T10:15:06;102160.31;;;19.98;41.33
80699;BME280;70062;51.658;5.658;2024-03-06T10:18:13;102161.69;;;20.21;40.84
80699;BME280;70062;51.658;5.658;2024-03-06T10:21:40;102158.58;;;20.33;40.22
80699;BME280;70062;51.658;5.658;2024-03-06T10:25:07;102163.27;;;20.32;39.94
80699;BME280;70062;51.658;5.658;2024-03-06T10:28:18;102160.56;;;20.24;39.81
80699;BME280;70062;51.658;5.658;2024-03-06T10:31:04;102158.46;;;20.12;39.88
80699;BME280;70062;51.658;5.658;2024-03-06T10:33:56;102156.19;;;20.00;39.90
80699;BME280;70062;51.658;5.658;2024-03-06T10:37:04;102159.86;;;19.84;40.10
80699;BME280;70062;51.658;5.658;2024-03-06T10:40:32;102164.98;;;19.65;40.32
80699;BME280;70062;51.658;5.658;2024-03-06T10:43:59;102167.27;;;19.46;40.66
80699;BME280;70062;51.658;5.658;2024-03-06T10:47:09;102164.33;;;19.26;40.95
80699;BME280;70062;51.658;5.658;2024-03-06T10:49:40;102163.63;;;19.11;41.21
80699;BME280;70062;51.658;5.658;2024-03-06T10:52:15;102165.55;;;18.98;41.50
80699;BME280;70062;51.658;5.658;2024-03-06T10:54:46;102163.96;;;18.83;41.74
80699;BME280;70062;51.658;5.658;2024-03-06T10:57:20;102165.23;;;18.70;42.03
80699;BME280;70062;51.658;5.658;2024-03-06T11:00:23;102167.05;;;18.54;42.34
80699;BME280;70062;51.658;5.658;2024-03-06T11:02:57;102163.77;;;18.41;42.69
80699;BME280;70062;51.658;5.658;2024-03-06T11:05:50;102163.97;;;18.28;42.90
80699;BME280;70062;51.658;5.658;2024-03-06T11:09:17;102170.21;;;18.14;43.28
80699;BME280;70062;51.658;5.658;2024-03-06T11:12:35;102175.33;;;17.98;43.60
80699;BME280;70062;51.658;5.658;2024-03-06T11:15:16;102179.06;;;17.88;43.95
80699;BME280;70062;51.658;5.658;2024-03-06T11:17:49;102183.16;;;17.77;44.10
80699;BME280;70062;51.658;5.658;2024-03-06T11:20:24;102181.67;;;17.67;44.65
80699;BME280;70062;51.658;5.658;2024-03-06T11:28:38;102179.42;;;18.96;44.03
80699;BME280;70062;51.658;5.658;2024-03-06T11:31:21;102178.27;;;19.57;42.96
80699;BME280;70062;51.658;5.658;2024-03-06T11:33:55;102179.02;;;19.95;42.02
80699;BME280;70062;51.658;5.658;2024-03-06T11:36:29;102181.84;;;20.18;41.45
80699;BME280;70062;51.658;5.658;2024-03-06T11:39:04;102177.99;;;20.17;41.10
80699;BME280;70062;51.658;5.658;2024-03-06T11:44:23;102180.04;;;20.56;40.62
80699;BME280;70062;51.658;5.658;2024-03-06T11:47:02;102182.39;;;20.76;40.17
80699;BME280;70062;51.658;5.658;2024-03-06T11:49:42;102182.02;;;20.88;39.77
80699;BME280;70062;51.658;5.658;2024-03-06T11:52:15;102184.13;;;20.94;39.47
80699;BME280;70062;51.658;5.658;2024-03-06T11:54:48;102187.98;;;20.94;39.35
80699;BME280;70062;51.658;5.658;2024-03-06T11:57:21;102189.59;;;20.89;39.31
80699;BME280;70062;51.658;5.658;2024-03-06T11:59:55;102188.12;;;20.81;39.31
80699;BME280;70062;51.658;5.658;2024-03-06T12:02:38;102188.73;;;20.72;39.58
80699;BME280;70062;51.658;5.658;2024-03-06T12:05:11;102187.33;;;20.60;39.57
80699;BME280;70062;51.658;5.658;2024-03-06T12:08:02;102190.52;;;20.50;39.81
80699;BME280;70062;51.658;5.658;2024-03-06T12:10:38;102188.17;;;20.37;39.87
80699;BME280;70062;51.658;5.658;2024-03-06T12:13:12;102189.55;;;20.26;40.13
80699;BME280;70062;51.658;5.658;2024-03-06T12:15:45;102189.84;;;20.12;40.15
80699;BME280;70062;51.658;5.658;2024-03-06T12:18:19;102185.05;;;19.99;40.55
80699;BME280;70062;51.658;5.658;2024-03-06T12:20:55;102184.98;;;19.85;40.80
80699;BME280;70062;51.658;5.658;2024-03-06T12:23:29;102192.98;;;19.74;40.88
80699;BME280;70062;51.658;5.658;2024-03-06T12:26:12;102188.21;;;19.62;41.16
80699;BME280;70062;51.658;5.658;2024-03-06T12:28:46;102185.14;;;19.49;41.38
80699;BME280;70062;51.658;5.658;2024-03-06T12:31:20;102185.81;;;19.38;41.60
80699;BME280;70062;51.658;5.658;2024-03-06T12:33:58;102191.06;;;19.29;41.81
80699;BME280;70062;51.658;5.658;2024-03-06T12:36:32;102190.19;;;19.19;42.00
80699;BME280;70062;51.658;5.658;2024-03-06T12:39:05;102193.55;;;19.10;42.10
80699;BME280;70062;51.658;5.658;2024-03-06T12:41:43;102193.05;;;19.02;42.38
80699;BME280;70062;51.658;5.658;2024-03-06T12:44:19;102191.13;;;18.92;42.54
80699;BME280;70062;51.658;5.658;2024-03-06T12:46:51;102188.55;;;18.79;42.84
80699;BME280;70062;51.658;5.658;2024-03-06T12:49:24;102186.59;;;18.68;43.23
80699;BME280;70062;51.658;5.658;2024-03-06T12:51:59;102183.00;;;18.80;43.66
80699;BME280;70062;51.658;5.658;2024-03-06T12:54:42;102184.02;;;19.26;43.44
80699;BME280;70062;51.658;5.658;2024-03-06T12:57:16;102178.21;;;19.92;42.65
80699;BME280;70062;51.658;5.658;2024-03-06T13:00:04;102179.63;;;20.48;41.62
80699;BME280;70062;51.658;5.658;2024-03-06T13:02:45;102181.56;;;20.96;40.60
80699;BME280;70062;51.658;5.658;2024-03-06T13:05:18;102176.73;;;21.23;39.87
80699;BME280;70062;51.658;5.658;2024-03-06T13:07:50;102179.87;;;21.42;39.30
80699;BME280;70062;51.658;5.658;2024-03-06T13:10:24;102174.67;;;21.51;39.06
80699;BME280;70062;51.658;5.658;2024-03-06T13:12:56;102179.63;;;21.53;38.71
80699;BME280;70062;51.658;5.658;2024-03-06T13:15:27;102184.94;;;21.49;38.73
80699;BME280;70062;51.658;5.658;2024-03-06T13:17:59;102181.27;;;21.41;38.57
80699;BME280;70062;51.658;5.658;2024-03-06T13:20:33;102180.30;;;21.31;38.47
80699;BME280;70062;51.658;5.658;2024-03-06T13:23:04;102177.97;;;21.17;38.71
80699;BME280;70062;51.658;5.658;2024-03-06T13:25:36;102184.20;;;21.03;38.82
80699;BME280;70062;51.658;5.658;2024-03-06T13:28:05;102179.33;;;20.85;38.98
80699;BME280;70062;51.658;5.658;2024-03-06T13:30:39;102180.58;;;20.68;39.11
80699;BME280;70062;51.658;5.658;2024-03-06T13:33:08;102178.73;;;20.52;39.42
80699;BME280;70062;51.658;5.658;2024-03-06T13:35:37;102179.59;;;20.35;39.68
80699;BME280;70062;51.658;5.658;2024-03-06T13:38:06;102188.69;;;20.20;39.90
80699;BME280;70062;51.658;5.658;2024-03-06T13:40:37;102187.58;;;20.01;40.15
80699;BME280;70062;51.658;5.658;2024-03-06T13:43:08;102191.44;;;19.86;40.41
80699;BME280;70062;51.658;5.658;2024-03-06T13:45:50;102193.14;;;19.69;40.75
80699;BME280;70062;51.658;5.658;2024-03-06T13:48:25;102195.22;;;19.53;41.06
80699;BME280;70062;51.658;5.658;2024-03-06T13:50:59;102197.63;;;19.37;41.28
80699;BME280;70062;51.658;5.658;2024-03-06T13:53:33;102195.17;;;19.22;41.57